Time;durP1;ratioP1;P1;durP2;ratioP2;P2;SDS_P1;SDS_P2;PMS_P1;PMS_P2;Temp;Humidity;BMP_temperature;BMP_pressure;BME280_temperature;BME280_humidity;BME280_pressure;Samples;Min_cycle;Max_cycle;Signal;HPM_P1;HPM_P2
2021/03/22 00:00:41;;;;;;;33.45;8.43;;;;;;;3.96;71.92;99171.56;6131589;23;20001;-71
2021/03/22 00:03:07;;;;;;;35.30;8.63;;;;;;;3.88;72.00;99167.19;6133109;23;20001;-73
2021/03/22 00:05:33;;;;;;;29.92;8.63;;;;;;;3.95;71.94;99163.88;6139974;23;20005;-72
2021/03/22 00:07:59;;;;;;;25.45;8.77;;;;;;;3.86;72.50;99170.56;6140778;23;20353;-72
2021/03/22 00:10:27;;;;;;;30.83;7.85;;;;;;;3.91;71.84;99177.47;6140562;23;20006;-72
2021/03/22 00:12:54;;;;;;;38.53;9.05;;;;;;;3.98;72.24;99174.19;6147167;23;20324;-72
2021/03/22 00:15:20;;;;;;;37.60;8.35;;;;;;;3.96;71.13;99165.59;6151052;23;20748;-72
2021/03/22 00:17:46;;;;;;;33.72;7.60;;;;;;;3.82;71.82;99158.56;6148169;23;20144;-72
2021/03/22 00:20:13;;;;;;;38.10;8.90;;;;;;;3.90;71.50;99162.94;6145655;23;20032;-73
2021/03/22 00:22:38;;;;;;;28.58;7.25;;;;;;;3.79;72.37;99163.66;6145503;23;20025;-72
2021/03/22 00:25:05;;;;;;;31.85;7.93;;;;;;;3.58;73.03;99164.19;6150098;23;20080;-72
2021/03/22 00:27:31;;;;;;;31.90;8.32;;;;;;;3.38;74.13;99167.22;6149993;23;20033;-72
2021/03/22 00:29:56;;;;;;;22.92;7.47;;;;;;;3.28;74.59;99166.22;6150330;23;19998;-72
2021/03/22 00:32:21;;;;;;;38.40;8.70;;;;;;;3.18;75.23;99172.88;6149709;23;20001;-72
2021/03/22 00:34:46;;;;;;;31.35;8.18;;;;;;;3.17;75.47;99171.16;6150357;23;20433;-72
2021/03/22 00:37:12;;;;;;;31.15;8.50;;;;;;;3.27;75.41;99167.91;6150065;23;20456;-73
2021/03/22 00:39:38;;;;;;;29.58;8.48;;;;;;;3.15;75.09;99172.84;6150441;23;20002;-72
2021/03/22 00:42:04;;;;;;;38.42;8.15;;;;;;;3.24;75.08;99173.00;6149836;23;20005;-72
2021/03/22 00:44:29;;;;;;;26.75;8.75;;;;;;;3.27;75.06;99172.16;6150099;23;20040;-72
2021/03/22 00:46:54;;;;;;;34.75;8.65;;;;;;;3.35;75.03;99165.50;6151131;23;20005;-72
2021/03/22 00:49:20;;;;;;;26.55;8.70;;;;;;;3.13;76.05;99164.25;6154357;23;19997;-72
2021/03/22 00:51:45;;;;;;;39.35;9.88;;;;;;;2.99;76.57;99165.69;6154415;23;20001;-72
2021/03/22 00:54:11;;;;;;;35.60;10.02;;;;;;;2.81;77.08;99167.09;6154294;23;20341;-72
2021/03/22 00:56:36;;;;;;;29.58;10.68;;;;;;;2.86;77.07;99158.63;6128258;23;20417;-72
2021/03/22 00:59:02;;;;;;;28.00;9.07;;;;;;;2.77;77.47;99160.19;6154270;23;20014;-72
2021/03/22 05:15:20;;;;;;;23.92;4.00;;;;;;;2.91;66.91;99197.97;6095388;23;20041;-67
2021/03/22 05:17:46;;;;;;;18.23;3.72;;;;;;;2.88;67.08;99213.25;6154540;23;20040;-67
2021/03/22 05:20:19;;;;;;;20.80;3.67;;;;;;;2.86;66.46;99209.81;6154125;23;19998;-67
2021/03/22 05:22:44;;;;;;;18.38;3.92;;;;;;;3.19;64.09;99209.56;6154183;23;20033;-67
2021/03/22 05:25:10;;;;;;;25.02;3.92;;;;;;;3.02;63.82;99210.13;6154015;23;20425;-67
2021/03/22 05:27:35;;;;;;;17.17;3.35;;;;;;;2.96;64.94;99212.56;6154329;23;20459;-67
2021/03/22 05:30:03;;;;;;;17.30;3.70;;;;;;;2.91;65.10;99213.31;6128559;23;19998;-67
2021/03/22 05:32:35;;;;;;;18.80;3.83;;;;;;;2.95;65.32;99225.31;6153960;23;20475;-67
2021/03/22 05:35:00;;;;;;;17.80;3.20;;;;;;;2.97;64.83;99223.69;6154076;23;20029;-67
2021/03/22 05:37:26;;;;;;;11.13;3.40;;;;;;;3.09;64.41;99223.91;6142461;23;20013;-67
2021/03/22 05:39:52;;;;;;;19.15;3.92;;;;;;;2.99;65.55;99216.88;6183856;23;19997;-67
2021/03/22 05:42:38;;;;;;;14.32;3.53;;;;;;;3.12;66.22;99223.97;6184079;23;20052;-67
2021/03/22 05:45:26;;;;;;;17.35;3.80;;;;;;;3.13;66.72;99222.25;6183735;23;20055;-66
2021/03/22 05:48:15;;;;;;;21.30;4.10;;;;;;;3.21;67.32;99224.13;6102809;23;20541;-66
2021/03/22 05:51:01;;;;;;;16.55;3.60;;;;;;;3.35;66.06;99221.84;6183832;23;20059;-67
2021/03/22 05:53:30;;;;;;;24.50;5.80;;;;;;;3.42;65.80;99222.78;6183844;23;20350;-67
2021/03/22 05:55:58;;;;;;;42.28;5.47;;;;;;;3.31;66.44;99220.91;6183617;23;20001;-67
2021/03/22 05:58:29;;;;;;;20.23;4.30;;;;;;;3.34;66.72;99230.38;6183989;23;20076;-67
2021/03/22 06:01:05;;;;;;;13.70;4.00;;;;;;;3.39;66.84;99235.56;6183892;23;20013;-67
2021/03/22 06:03:37;;;;;;;20.65;4.80;;;;;;;3.37;66.18;99234.66;6184162;23;20005;-67
2021/03/22 06:06:35;;;;;;;21.30;4.20;;;;;;;3.44;65.68;99233.94;6183468;23;20009;-67
2021/03/22 06:09:25;;;;;;;25.88;4.47;;;;;;;3.50;66.20;99240.03;6161517;23;20340;-67
2021/03/22 06:11:58;;;;;;;19.42;3.25;;;;;;;3.74;63.59;99237.03;6183922;23;20484;-67
2021/03/22 06:14:36;;;;;;;24.00;4.38;;;;;;;3.62;64.89;99231.69;6183737;23;20001;-67
2021/03/22 06:17:20;;;;;;;17.80;4.40;;;;;;;3.77;63.59;99237.09;6185093;23;20009;-67
2021/03/22 06:19:58;;;;;;;22.42;4.68;;;;;;;3.59;64.74;99241.91;6185504;23;20001;-67
2021/03/22 06:22:26;;;;;;;23.38;3.28;;;;;;;3.84;64.31;99238.91;6185093;23;20012;-67
2021/03/22 06:24:52;;;;;;;14.82;3.10;;;;;;;3.86;63.24;99237.22;6185429;23;20001;-67
2021/03/22 06:27:18;;;;;;;16.48;3.50;;;;;;;3.84;63.52;99238.91;6185290;23;20072;-67
2021/03/22 06:29:44;;;;;;;13.90;3.08;;;;;;;3.76;63.62;99240.47;6185829;23;20021;-67
2021/03/22 06:32:15;;;;;;;28.60;6.93;;;;;;;3.92;63.01;99251.00;6185337;23;20001;-67
2021/03/22 06:34:59;;;;;;;32.40;7.45;;;;;;;3.89;63.39;99250.94;6185299;23;20011;-67
2021/03/22 06:37:26;;;;;;;13.88;4.00;;;;;;;3.83;63.53;99267.06;6185473;23;20012;-67
2021/03/22 06:40:08;;;;;;;11.90;2.72;;;;;;;3.71;64.04;99272.84;6185224;23;20001;-69
2021/03/22 06:42:33;;;;;;;17.67;3.40;;;;;;;3.97;62.80;99264.75;6184989;23;20076;-67
2021/03/22 06:44:59;;;;;;;14.40;3.33;;;;;;;3.77;62.99;99275.53;6185258;23;20032;-67
2021/03/22 06:47:32;;;;;;;20.05;3.20;;;;;;;3.76;63.76;99276.34;6185002;23;20000;-67
2021/03/22 06:50:26;;;;;;;25.33;4.03;;;;;;;3.72;63.38;99269.44;6185200;23;20436;-67
2021/03/22 06:52:53;;;;;;;19.00;3.30;;;;;;;3.65;63.72;99277.88;6184875;23;20439;-67
2021/03/22 06:55:33;;;;;;;15.85;3.22;;;;;;;3.87;64.64;99274.00;6185076;23;20088;-67
2021/03/22 06:57:59;;;;;;;18.02;4.15;;;;;;;3.84;64.04;99274.78;6184889;23;20501;-67
2021/03/22 07:00:28;;;;;;;17.13;3.67;;;;;;;4.03;63.57;99280.22;6185164;23;20005;-67
2021/03/22 07:02:58;;;;;;;17.25;3.10;;;;;;;4.16;63.70;99284.72;6185094;23;20007;-67
2021/03/22 07:05:29;;;;;;;;;;;;;;;3.91;63.58;99287.69;6180739;23;20009;-67
2021/03/22 07:08:07;;;;;;;17.55;3.50;;;;;;;4.08;64.03;99283.72;6179155;23;19911;-67
2021/03/22 07:10:40;;;;;;;30.38;4.55;;;;;;;3.91;64.67;99280.00;6183127;23;20090;-67
2021/03/22 07:13:12;;;;;;;22.98;3.45;;;;;;;3.84;65.25;99282.47;6184878;23;20001;-67
2021/03/22 07:15:38;;;;;;;21.67;3.75;;;;;;;3.80;65.56;99283.25;6184586;23;20091;-67
2021/03/22 07:18:23;;;;;;;22.13;4.00;;;;;;;4.00;65.65;99273.31;6184582;23;20005;-68
2021/03/22 07:20:55;;;;;;;16.77;3.83;;;;;;;4.00;64.51;99283.59;6184395;23;20009;-67
2021/03/22 07:23:26;;;;;;;12.90;4.07;;;;;;;4.17;64.11;99278.75;6183854;23;20377;-67
2021/03/22 07:25:54;;;;;;;27.83;5.03;;;;;;;4.19;64.24;99291.56;6184711;23;20005;-67
2021/03/22 07:28:31;;;;;;;20.42;3.78;;;;;;;4.26;64.46;99289.13;6184333;23;20487;-68
2021/03/22 07:31:12;;;;;;;18.45;4.43;;;;;;;4.27;64.87;99290.88;6184494;23;20706;-68
2021/03/22 07:33:40;;;;;;;23.90;3.95;;;;;;;4.46;64.24;99296.28;6183438;23;20091;-68
2021/03/22 07:36:41;;;;;;;25.10;4.50;;;;;;;4.64;63.42;99296.50;6184466;23;20024;-67
2021/03/22 07:39:21;;;;;;;16.08;3.83;;;;;;;4.49;63.50;99304.00;6163641;23;20110;-68
2021/03/22 07:42:12;;;;;;;23.50;4.43;;;;;;;4.58;63.93;99301.56;6184413;23;20063;-68
2021/03/22 07:44:46;;;;;;;29.73;5.90;;;;;;;4.49;64.23;99306.56;6183836;23;20005;-68
2021/03/22 07:47:24;;;;;;;23.52;4.65;;;;;;;4.51;64.62;99310.03;6183792;23;20058;-68
2021/03/22 07:49:50;;;;;;;22.15;4.05;;;;;;;4.71;64.62;99308.59;6184569;23;20001;-68
2021/03/22 07:55:08;;;;;;;26.92;4.57;;;;;;;4.77;64.63;99307.81;5109868;27;20359;-69
2021/03/22 07:58:06;;;;;;;25.77;3.97;;;;;;;4.73;63.98;99322.31;5088296;28;20457;-69
2021/03/22 08:01:05;;;;;;;23.65;5.13;;;;;;;4.89;63.54;99311.44;5089367;28;20032;-69
2021/03/22 08:04:03;;;;;;;29.13;6.93;;;;;;;4.77;64.18;99312.97;5089406;28;20381;-69
2021/03/22 08:07:00;;;;;;;26.33;7.28;;;;;;;5.01;63.29;99307.28;5097387;28;20365;-69
2021/03/22 08:09:25;;;;;;;34.38;7.35;;;;;;;4.58;63.98;99327.22;5069883;28;20044;-69
2021/03/22 08:11:57;;;;;;;29.88;6.63;;;;;;;4.99;64.02;99319.25;5089011;28;20024;-69
2021/03/22 08:14:22;;;;;;;35.58;6.93;;;;;;;4.93;64.74;99322.59;5090213;28;20055;-69
2021/03/22 08:17:04;;;;;;;29.77;6.22;;;;;;;5.12;64.47;99326.25;5100772;28;20051;-69
2021/03/22 08:19:39;;;;;;;22.48;5.55;;;;;;;4.99;65.53;99324.41;5108794;28;20452;-69
2021/03/22 08:22:34;;;;;;;22.90;6.30;;;;;;;5.04;65.09;99327.88;5108533;28;20069;-68
2021/03/22 08:25:11;;;;;;;26.83;5.95;;;;;;;4.97;64.93;99326.91;5109047;28;20019;-68
2021/03/22 08:27:43;;;;;;;30.13;4.38;;;;;;;5.03;65.01;99337.31;5109149;28;20028;-69
2021/03/22 08:30:29;;;;;;;24.02;4.70;;;;;;;4.93;64.89;99339.69;5109050;28;20074;-69
2021/03/22 08:33:00;;;;;;;20.80;3.97;;;;;;;4.61;64.87;99345.25;5107953;28;20024;-68
2021/03/22 08:35:44;;;;;;;18.17;4.65;;;;;;;4.75;64.89;99351.44;5108872;28;20027;-69
2021/03/22 08:38:29;;;;;;;16.35;5.13;;;;;;;4.34;66.62;99353.38;5108895;28;20026;-69
2021/03/22 08:40:57;;;;;;;25.15;5.40;;;;;;;5.02;64.20;99360.38;5108655;28;20093;-68
2021/03/22 08:43:39;;;;;;;24.60;4.53;;;;;;;5.33;63.02;99359.94;5108050;28;20123;-70
2021/03/22 08:46:23;;;;;;;23.88;4.15;;;;;;;5.39;62.09;99362.56;5095062;28;20028;-71
2021/03/22 08:48:49;;;;;;;24.42;4.53;;;;;;;5.49;62.30;99363.53;5074676;28;20024;-71
2021/03/22 08:51:23;;;;;;;19.73;5.40;;;;;;;4.99;63.29;99373.19;5088073;28;20055;-71
2021/03/22 08:53:51;;;;;;;27.88;4.60;;;;;;;5.27;63.45;99367.56;5088136;28;20024;-71
2021/03/22 08:56:25;;;;;;;23.52;4.03;;;;;;;5.63;61.15;99366.28;5087077;28;20024;-70
2021/03/22 08:58:53;;;;;;;34.50;8.65;;;;;;;5.63;61.57;99366.28;5088167;28;20032;-70
2021/03/22 09:01:21;;;;;;;32.88;8.23;;;;;;;5.35;61.86;99376.22;5087869;28;20035;-71
2021/03/22 09:03:51;;;;;;;19.45;4.50;;;;;;;5.58;60.97;99373.06;5087620;28;20016;-70
2021/03/22 09:06:29;;;;;;;28.20;8.30;;;;;;;5.13;62.94;99389.66;5073423;28;20025;-70
2021/03/22 09:09:24;;;;;;;21.17;3.75;;;;;;;4.42;64.51;99386.84;5074199;28;20033;-70
2021/03/22 09:11:51;;;;;;;17.75;4.30;;;;;;;4.34;65.39;99387.56;5073260;28;20508;-70
2021/03/22 09:14:31;;;;;;;22.80;4.68;;;;;;;4.59;65.02;99382.84;5074687;28;20381;-70
2021/03/22 09:16:57;;;;;;;19.80;3.47;;;;;;;4.60;66.68;99387.16;5086078;28;20098;-70
2021/03/22 09:19:39;;;;;;;23.02;5.03;;;;;;;5.30;64.49;99377.88;5093479;28;20024;-70
2021/03/22 09:22:04;;;;;;;51.25;11.20;;;;;;;5.58;64.05;99383.34;5094460;28;20024;-70
2021/03/22 09:24:43;;;;;;;38.88;7.22;;;;;;;5.37;64.44;99389.97;5094393;28;20068;-70
2021/03/22 09:27:20;;;;;;;21.50;4.70;;;;;;;5.97;61.88;99382.09;5094512;28;20153;-70
2021/03/22 09:29:46;;;;;;;29.50;5.38;;;;;;;6.05;61.65;99375.34;5093631;28;20107;-70
2021/03/22 09:32:23;;;;;;;23.08;5.50;;;;;;;6.11;62.21;99378.81;5093818;28;20107;-70
2021/03/22 09:34:49;;;;;;;22.25;3.90;;;;;;;6.02;61.32;99385.59;5094293;28;20059;-70
2021/03/22 09:37:36;;;;;;;19.17;3.65;;;;;;;5.58;62.24;99391.06;5094199;28;20116;-70
2021/03/22 09:40:04;;;;;;;11.77;3.38;;;;;;;4.49;64.14;99391.22;5094154;28;20085;-70
2021/03/22 09:42:29;;;;;;;9.40;3.13;;;;;;;4.73;64.68;99389.06;5091245;28;20020;-71
2021/03/22 09:44:54;;;;;;;18.33;3.45;;;;;;;5.39;63.08;99392.53;5085499;28;20023;-70
2021/03/22 09:47:24;;;;;;;10.90;2.60;;;;;;;5.06;62.73;99395.53;5087952;28;20055;-70
2021/03/22 09:50:01;;;;;;;29.33;5.25;;;;;;;5.08;64.13;99396.44;5094009;28;20361;-69
2021/03/22 09:52:26;;;;;;;17.05;4.05;;;;;;;5.04;63.94;99400.66;5084668;28;20485;-70
2021/03/22 09:54:53;;;;;;;13.07;4.43;;;;;;;4.30;66.12;99403.78;5093290;28;20039;-70
2021/03/22 09:57:41;;;;;;;14.57;2.72;;;;;;;4.71;66.01;99407.84;5093661;28;20054;-70
2021/03/22 10:00:19;;;;;;;18.98;3.80;;;;;;;4.98;65.01;99405.72;5093833;28;20032;-70
2021/03/22 10:02:50;;;;;;;14.55;3.63;;;;;;;4.66;65.62;99402.66;5082659;28;20399;-70
2021/03/22 10:05:23;;;;;;;15.40;3.85;;;;;;;5.06;64.95;99400.66;5083329;28;20025;-70
2021/03/22 10:08:04;;;;;;;30.35;6.85;;;;;;;4.99;65.40;99396.28;5087037;28;20055;-70
2021/03/22 10:10:40;;;;;;;18.55;3.95;;;;;;;5.32;65.54;99404.47;5092485;28;20027;-70
2021/03/22 10:13:15;;;;;;;29.38;4.95;;;;;;;5.82;63.63;99404.19;5091519;28;20019;-70
2021/03/22 10:15:50;;;;;;;17.02;3.75;;;;;;;5.57;62.97;99403.06;5077505;28;20124;-69
2021/03/22 10:18:19;;;;;;;26.55;5.40;;;;;;;6.48;61.11;99396.28;5089156;28;20034;-70
2021/03/22 10:20:48;;;;;;;9.98;3.33;;;;;;;7.23;58.49;99395.09;5093396;28;20024;-70
2021/03/22 10:23:22;;;;;;;12.45;2.97;;;;;;;7.42;57.40;99391.75;5085322;28;20025;-70
2021/03/22 10:25:51;;;;;;;16.67;4.63;;;;;;;7.12;57.66;99391.59;5086224;28;20028;-70
2021/03/22 10:28:25;;;;;;;19.85;4.05;;;;;;;6.70;59.49;99386.16;5092311;28;20024;-70
2021/03/22 10:30:58;;;;;;;16.33;4.10;;;;;;;6.65;57.62;99384.41;5085110;28;20020;-70
2021/03/22 10:33:24;;;;;;;23.75;3.90;;;;;;;5.90;61.44;99387.16;5091194;28;20473;-70
2021/03/22 10:35:54;;;;;;;18.60;3.75;;;;;;;5.84;61.69;99388.78;5092946;28;20036;-71
2021/03/22 10:38:28;;;;;;;13.43;2.80;;;;;;;4.99;62.63;99401.44;5093077;28;20024;-70
2021/03/22 10:40:55;;;;;;;11.40;3.03;;;;;;;4.80;64.36;99406.28;5091899;28;20394;-70
2021/03/22 10:43:34;;;;;;;14.40;3.28;;;;;;;4.75;64.39;99397.66;5081507;28;20411;-70
2021/03/22 10:46:18;;;;;;;9.90;3.30;;;;;;;4.75;64.64;99397.66;5081689;28;20032;-69
2021/03/22 10:48:45;;;;;;;9.70;3.80;;;;;;;4.82;63.79;99399.47;5072580;28;20666;-70
2021/03/22 10:51:18;;;;;;;14.80;4.63;;;;;;;5.01;64.25;99410.00;5036188;28;20064;-70
2021/03/22 10:54:01;;;;;;;14.35;3.10;;;;;;;4.96;64.18;99414.22;5038618;28;20061;-70
2021/03/22 10:56:41;;;;;;;12.18;3.13;;;;;;;4.51;63.73;99404.97;5032555;28;20083;-70
2021/03/22 10:59:15;;;;;;;16.27;2.90;;;;;;;4.62;64.22;99404.28;5032526;28;20030;-70
2021/03/22 11:01:40;;;;;;;10.82;3.63;;;;;;;5.12;64.00;99404.16;5032356;28;20029;-70
2021/03/22 11:04:14;;;;;;;13.57;2.95;;;;;;;5.28;63.79;99410.41;5031326;28;20022;-70
2021/03/22 11:06:44;;;;;;;14.07;4.20;;;;;;;5.54;61.86;99403.00;5032421;28;20022;-70
2021/03/22 11:09:18;;;;;;;10.93;3.78;;;;;;;5.51;61.98;99403.00;5032236;28;20025;-70
2021/03/22 11:11:43;;;;;;;13.52;2.85;;;;;;;5.74;61.38;99405.81;5032212;28;20477;-71
2021/03/22 11:14:10;;;;;;;13.77;3.38;;;;;;;5.83;60.83;99395.63;5028348;28;20102;-70
2021/03/22 11:16:40;;;;;;;12.35;2.90;;;;;;;5.81;61.48;99412.78;5042891;28;20029;-70
2021/03/22 11:19:26;;;;;;;17.77;3.95;;;;;;;6.02;60.73;99401.00;5052229;28;20031;-70
2021/03/22 11:21:53;;;;;;;11.15;3.28;;;;;;;6.11;59.55;99401.97;5051845;28;20366;-70
2021/03/22 11:24:33;;;;;;;10.65;3.08;;;;;;;6.38;58.88;99398.81;5051998;28;20031;-71
2021/03/22 11:27:00;;;;;;;;;;;;;;;6.36;59.23;99397.91;5051140;28;20511;-70
2021/03/22 11:29:26;;;;;;;12.20;2.58;;;;;;;6.65;57.51;99394.72;5068995;22;19914;-72
2021/03/22 11:32:05;;;;;;;12.73;3.58;;;;;;;6.99;57.03;99394.94;5011592;28;20045;-72
2021/03/22 11:34:42;;;;;;;7.40;2.88;;;;;;;7.02;56.16;99395.00;5001898;28;20084;-72
2021/03/22 11:37:25;;;;;;;12.00;2.90;;;;;;;6.87;57.05;99390.59;5002625;28;20030;-72
2021/03/22 11:40:18;;;;;;;13.20;2.95;;;;;;;6.90;56.96;99391.47;5006157;28;20025;-68
2021/03/22 11:43:02;;;;;;;9.88;3.25;;;;;;;7.13;57.03;99383.88;5021822;28;20029;-68
2021/03/22 11:45:40;;;;;;;12.65;2.67;;;;;;;6.85;56.99;99380.25;5033241;28;20033;-68
2021/03/22 11:48:25;;;;;;;9.52;2.70;;;;;;;6.86;56.94;99379.41;5022052;28;20029;-68
2021/03/22 11:50:54;;;;;;;15.65;7.25;;;;;;;7.12;56.49;99376.16;5020892;28;20033;-66
2021/03/22 11:53:24;;;;;;;15.70;3.08;;;;;;;7.57;55.37;99374.63;5020915;28;20060;-65
2021/03/22 11:55:55;;;;;;;9.20;2.67;;;;;;;7.68;53.45;99376.38;5022044;28;20036;-66
2021/03/22 11:58:39;;;;;;;5.55;2.10;;;;;;;7.41;53.63;99372.00;5021915;28;20033;-66
2021/03/22 12:01:14;;;;;;;9.40;2.40;;;;;;;7.37;55.84;99372.81;5021282;28;20037;-68
2021/03/22 12:03:40;;;;;;;9.00;2.30;;;;;;;7.47;55.70;99374.59;5021456;28;20485;-72
2021/03/22 12:06:12;;;;;;;11.55;3.03;;;;;;;7.23;56.21;99374.47;5021726;28;20152;-73
2021/03/22 12:08:46;;;;;;;14.27;3.08;;;;;;;6.76;57.73;99380.19;5015791;28;20426;-72
2021/03/22 12:11:19;;;;;;;15.57;3.05;;;;;;;6.87;57.40;99383.72;5010223;28;20025;-72
2021/03/22 12:13:52;;;;;;;11.75;3.83;;;;;;;6.67;58.31;99377.56;5012219;28;20057;-73
2021/03/22 12:16:20;;;;;;;9.75;2.72;;;;;;;6.36;58.36;99377.31;5013176;28;20025;-73
2021/03/22 12:18:46;;;;;;;7.45;2.30;;;;;;;6.23;59.48;99378.06;5013384;28;20036;-69
2021/03/22 12:21:13;;;;;;;9.65;3.03;;;;;;;5.98;60.31;99373.53;5013208;28;20029;-67
2021/03/22 12:23:38;;;;;;;12.27;2.95;;;;;;;5.88;61.42;99385.41;5006999;28;20028;-67
2021/03/22 12:26:05;;;;;;;7.75;2.53;;;;;;;6.07;60.20;99384.78;5003220;28;20387;-66
2021/03/22 12:28:31;;;;;;;10.32;2.70;;;;;;;6.04;60.71;99386.44;5005099;28;20638;-66
2021/03/22 12:30:57;;;;;;;13.45;2.80;;;;;;;5.88;60.21;99383.69;5005621;28;20033;-66
2021/03/22 12:33:25;;;;;;;9.55;2.58;;;;;;;5.45;61.09;99382.34;5004819;28;20605;-65
2021/03/22 12:35:52;;;;;;;9.13;2.47;;;;;;;5.77;60.93;99372.44;5005298;28;20036;-67
2021/03/22 12:38:17;;;;;;;14.52;4.05;;;;;;;5.82;60.92;99378.50;5010471;28;20033;-67
2021/03/22 12:40:43;;;;;;;9.27;2.50;;;;;;;6.33;59.77;99379.00;5017357;28;21002;-69
2021/03/22 12:43:19;;;;;;;18.45;3.08;;;;;;;6.21;59.61;99369.47;5018907;28;20161;-69
2021/03/22 12:45:44;;;;;;;15.90;2.90;;;;;;;6.25;58.98;99372.94;5019622;28;20056;-70
2021/03/22 12:48:10;;;;;;;13.20;3.03;;;;;;;6.43;59.15;99379.13;5018931;28;20049;-69
2021/03/22 12:50:39;;;;;;;13.07;2.88;;;;;;;6.61;58.83;99378.38;5019205;28;20033;-69
2021/03/22 12:53:08;;;;;;;8.73;2.30;;;;;;;6.89;57.58;99379.44;5023116;28;21067;-70
2021/03/22 12:55:33;;;;;;;14.98;5.45;;;;;;;6.89;57.17;99369.13;5025104;28;20041;-69
2021/03/22 12:58:03;;;;;;;11.50;3.88;;;;;;;6.65;58.05;99380.13;5023624;28;20033;-70
2021/03/22 13:00:29;;;;;;;13.17;2.73;;;;;;;6.72;58.37;99375.91;5022928;28;20062;-69
2021/03/22 13:02:55;;;;;;;14.05;2.80;;;;;;;6.77;58.50;99373.31;5024602;28;20541;-70
2021/03/22 13:05:23;;;;;;;11.40;3.15;;;;;;;6.65;58.99;99374.13;5024591;28;20498;-69
2021/03/22 13:07:49;;;;;;;11.75;3.15;;;;;;;6.95;58.19;99379.47;5021716;28;20036;-69
2021/03/22 13:10:20;;;;;;;10.38;2.83;;;;;;;6.78;58.29;99381.09;5019833;28;20048;-68
2021/03/22 13:12:46;;;;;;;9.23;2.63;;;;;;;6.76;58.03;99382.78;5023312;28;20034;-68
2021/03/22 13:15:39;;;;;;;9.48;2.60;;;;;;;6.61;58.46;99387.81;5023457;28;20083;-73
2021/03/22 13:18:29;;;;;;;10.65;2.95;;;;;;;6.03;59.96;99382.16;5021501;28;20049;-66
2021/03/22 13:20:59;;;;;;;14.35;3.47;;;;;;;6.53;59.37;99376.63;5024522;28;20067;-66
2021/03/22 13:23:27;;;;;;;10.48;2.60;;;;;;;6.48;58.98;99375.69;5023510;28;20120;-66
2021/03/22 13:25:53;;;;;;;8.95;2.40;;;;;;;6.28;58.78;99383.25;5024106;28;20113;-66
2021/03/22 13:28:28;;;;;;;9.40;2.55;;;;;;;6.26;59.46;99384.94;5024274;28;20025;-66
2021/03/22 13:30:55;;;;;;;15.07;3.20;;;;;;;6.20;60.16;99385.75;5012193;28;20034;-66
2021/03/22 13:33:25;;;;;;;13.93;2.85;;;;;;;6.08;60.69;99386.50;5013058;28;20033;-66
2021/03/22 13:35:50;;;;;;;;;;;;;;;6.16;61.18;99384.00;5012889;28;20029;-68
2021/03/22 13:38:25;;;;;;;11.30;4.05;;;;;;;5.98;61.64;99383.81;5014095;28;20002;-68
2021/03/22 13:40:51;;;;;;;7.78;2.97;;;;;;;5.82;61.06;99382.78;5008444;28;20068;-68
2021/03/22 13:43:19;;;;;;;10.18;2.60;;;;;;;6.16;60.53;99389.16;5004354;28;20113;-68
2021/03/22 13:45:44;;;;;;;8.25;2.90;;;;;;;6.25;60.08;99384.09;5001995;28;20026;-68
2021/03/22 13:48:11;;;;;;;11.00;2.40;;;;;;;6.17;60.23;99385.72;5002097;28;20040;-68
2021/03/22 13:50:37;;;;;;;6.38;2.38;;;;;;;6.17;60.43;99390.88;4986962;28;20029;-68
2021/03/22 13:53:03;;;;;;;13.73;2.80;;;;;;;6.13;60.66;99389.09;4984773;28;21633;-69
2021/03/22 13:55:29;;;;;;;8.88;2.72;;;;;;;6.07;60.55;99379.63;4988272;28;20036;-68
2021/03/22 13:57:54;;;;;;;6.80;2.35;;;;;;;5.83;60.63;99390.50;4985426;28;20033;-69
2021/03/22 14:00:20;;;;;;;14.02;3.75;;;;;;;5.87;61.31;99381.97;4990403;28;20095;-69
2021/03/22 14:02:47;;;;;;;7.35;2.70;;;;;;;5.96;60.70;99390.66;4999389;28;20029;-69
2021/03/22 14:05:22;;;;;;;8.50;3.10;;;;;;;6.18;60.32;99387.44;5010442;28;20106;-69
2021/03/22 14:07:48;;;;;;;6.72;3.00;;;;;;;5.86;60.54;99385.41;4992535;28;20038;-68
2021/03/22 14:10:16;;;;;;;9.07;2.85;;;;;;;6.16;59.90;99386.59;4993902;28;20394;-69
2021/03/22 14:12:42;;;;;;;7.03;2.78;;;;;;;6.39;59.20;99387.66;5010345;28;20021;-72
2021/03/22 14:15:14;;;;;;;6.28;3.05;;;;;;;6.32;59.60;99385.00;5008068;28;20033;-73
2021/03/22 14:17:39;;;;;;;33.55;16.23;;;;;;;6.38;59.55;99385.03;5004478;28;20059;-72
2021/03/22 14:20:05;;;;;;;9.27;2.95;;;;;;;6.22;59.45;99391.78;5014612;28;20029;-72
2021/03/22 14:22:30;;;;;;;10.30;2.83;;;;;;;6.21;59.91;99391.78;5007956;28;20099;-72
2021/03/22 14:24:55;;;;;;;10.30;2.88;;;;;;;6.16;60.19;99390.00;5009957;28;20021;-69
2021/03/22 14:27:21;;;;;;;7.85;2.80;;;;;;;6.25;59.47;99394.38;5010004;28;20028;-68
2021/03/22 14:29:46;;;;;;;9.57;2.63;;;;;;;6.31;59.70;99393.56;5010328;28;20037;-69
2021/03/22 14:32:12;;;;;;;9.35;2.30;;;;;;;6.16;59.58;99391.72;4998392;28;20040;-69
2021/03/22 14:34:37;;;;;;;6.80;2.22;;;;;;;6.07;59.78;99394.19;4997832;28;20453;-69
2021/03/22 14:37:03;;;;;;;6.65;2.05;;;;;;;6.18;60.51;99397.72;4990612;28;20078;-70
2021/03/22 14:39:28;;;;;;;8.23;2.58;;;;;;;6.18;60.19;99397.72;4987643;28;20033;-67
2021/03/22 14:41:53;;;;;;;9.68;3.72;;;;;;;6.03;60.39;99402.72;4984471;28;20976;-73
2021/03/22 14:44:20;;;;;;;12.98;2.70;;;;;;;6.13;60.53;99404.53;4984484;28;20073;-74
2021/03/22 14:46:46;;;;;;;6.53;2.67;;;;;;;6.21;60.26;99408.06;4976053;28;20036;-72
2021/03/22 14:49:11;;;;;;;9.98;2.65;;;;;;;6.03;61.41;99402.72;4975154;28;20025;-74
2021/03/22 14:51:36;;;;;;;10.63;2.53;;;;;;;5.82;61.72;99414.50;4994508;28;20429;-74
2021/03/22 14:54:02;;;;;;;7.97;2.65;;;;;;;6.02;60.99;99408.72;4992095;28;20623;-74
2021/03/22 14:56:27;;;;;;;11.65;3.22;;;;;;;5.88;61.64;99414.53;4993810;28;20806;-70
2021/03/22 14:58:52;;;;;;;8.98;3.63;;;;;;;5.89;61.80;99405.13;4993149;28;20033;-69
2021/03/22 15:01:20;;;;;;;11.25;4.10;;;;;;;5.97;61.03;99407.81;5001784;28;20065;-69
2021/03/22 15:03:45;;;;;;;9.15;2.75;;;;;;;5.93;61.05;99404.34;5008075;28;20029;-70
2021/03/22 15:06:11;;;;;;;7.53;2.88;;;;;;;5.97;60.90;99403.53;5007747;28;20390;-70
2021/03/22 15:08:36;;;;;;;13.30;4.28;;;;;;;5.92;61.60;99406.06;5015607;28;20507;-74
2021/03/22 15:11:01;;;;;;;9.05;3.85;;;;;;;5.74;62.95;99410.97;5016357;28;20037;-74
2021/03/22 15:13:27;;;;;;;10.30;3.97;;;;;;;5.94;62.10;99408.63;5016840;28;20144;-74
2021/03/22 15:15:52;;;;;;;9.35;3.78;;;;;;;5.86;61.83;99420.53;5020719;28;20068;-74
2021/03/22 15:18:23;;;;;;;11.63;3.42;;;;;;;5.77;62.95;99421.28;5020473;28;20033;-74
2021/03/22 15:20:49;;;;;;;13.98;4.10;;;;;;;6.01;62.24;99414.72;5020397;28;20034;-68
2021/03/22 15:23:22;;;;;;;11.57;3.83;;;;;;;6.00;62.71;99415.59;5022135;28;20022;-73
2021/03/22 15:25:47;;;;;;;9.75;3.35;;;;;;;5.90;63.12;99418.03;5019570;28;20038;-74
2021/03/22 15:28:17;;;;;;;9.40;4.07;;;;;;;6.00;62.80;99413.00;5022106;28;20029;-74
2021/03/22 15:30:43;;;;;;;9.27;3.55;;;;;;;5.98;63.28;99419.81;5021669;28;20033;-74
2021/03/22 15:33:18;;;;;;;4.68;3.20;;;;;;;6.30;62.64;99413.31;5020338;28;20045;-74
2021/03/22 15:35:43;;;;;;;12.63;3.30;;;;;;;6.18;62.65;99418.31;5022044;28;20057;-74
2021/03/22 15:38:09;;;;;;;12.15;4.63;;;;;;;6.09;63.08;99419.13;5022187;28;20059;-74
2021/03/22 15:40:34;;;;;;;9.45;4.10;;;;;;;6.12;62.64;99420.84;5022101;28;20402;-74
2021/03/22 15:42:59;;;;;;;10.32;4.63;;;;;;;6.01;62.61;99419.88;5019939;28;20733;-74
2021/03/22 15:45:32;;;;;;;15.80;5.72;;;;;;;5.99;62.87;99422.41;5021668;28;20446;-74
2021/03/22 15:47:57;;;;;;;10.73;4.03;;;;;;;5.92;63.73;99426.63;5022065;28;20117;-74
2021/03/22 15:50:23;;;;;;;11.60;5.18;;;;;;;5.81;63.75;99423.06;5006954;28;20048;-74
2021/03/22 15:52:49;;;;;;;12.90;5.95;;;;;;;5.76;64.25;99429.84;5023887;28;20088;-74
2021/03/22 15:55:21;;;;;;;18.48;6.65;;;;;;;5.91;63.60;99421.44;5018453;28;20826;-74
2021/03/22 15:57:46;;;;;;;12.13;6.05;;;;;;;5.88;64.55;99435.13;4997283;28;20104;-74
2021/03/22 16:00:18;;;;;;;14.55;4.53;;;;;;;6.02;64.15;99421.59;4996945;28;20040;-74
2021/03/22 16:02:44;;;;;;;14.05;3.72;;;;;;;6.03;63.08;99423.31;4983113;28;20053;-74
2021/03/22 16:05:10;;;;;;;8.32;3.47;;;;;;;5.78;63.71;99429.84;4979484;28;20049;-74
2021/03/22 16:07:35;;;;;;;15.55;4.65;;;;;;;5.71;63.71;99435.78;4977984;28;20356;-74
2021/03/22 16:10:00;;;;;;;14.88;5.20;;;;;;;5.76;64.22;99439.28;4975483;28;20044;-74
2021/03/22 16:12:25;;;;;;;16.52;5.45;;;;;;;5.97;63.79;99439.53;4978258;28;20501;-74